Accueil
METAR-TAF:

METAR-TAF

Aéroports :

Wichita Falls Municipal Airport / Sheppard Air Force Base

Wichita Falls, Texas, États-Unis

latitude: 33-58-43N, longitude: 098-29-34W, altitude: 309 m

Observation

Le bulletin a été fait il y a 43 minutes, à 20:52 UTC
Vent 6 kt de sud/sud-ouest avec des rafales jusqu'à 18 kt
Température 39°C
Humidité 28%
Pression 1014 hPa
Visibilité: 16.1 km
Nuages épars à une hauteur de 8500 ft

METAR: KSPS 162052Z 20006G18KT 10SM SCT085 39/17 A2995 RMK AO2 SLP124 T03890172 58019

Heure: 16:35 (21:35 UTC)

Prévision

Le bulletin a été fait il y a 4 heures et 15 minutes, à 17:20 UTC
Prévision valable du 16 à 18 UTC au 17 à 18 UTC
Vent 8 kt de sud
Visibilité: 10 km
Quelques nuages à une hauteur de 10000 ft

TAF: KSPS 161720Z 1618/1718 19008KT P6SM FEW100

Observations et prévisions météorologiques de plus de 4000 aéroports (messages METAR et TAF).

Les stations disponibles sont représentées par des disques jaunes et rouges sur la carte.

Passer la souris dessus pour voir le nom de la station.

Cliquer dessus pour voir les observations et prévisions météorologiques.

Pour changer de carte: cliquez sur les boutons verts avec une croix noire pour zoomer, sur le bouton vert avec un tiret pour effectuer un zoom arrière, ou sur les flèches vertes pour les cartes adjacentes.


METAR-TAF: